sensor_id;sensor_type;location;lat;lon;timestamp;pressure;altitude;pressure_sealevel;temperature;humidity
51359;BME280;37448;51.588;7.248;2022-08-30T00:00:34;101304.31;;;17.84;78.10
51359;BME280;37448;51.588;7.248;2022-08-30T00:03:24;101301.94;;;17.75;79.48
51359;BME280;37448;51.588;7.248;2022-08-30T00:05:56;101305.91;;;17.74;79.42
51359;BME280;37448;51.588;7.248;2022-08-30T00:08:26;101304.72;;;17.72;79.72
51359;BME280;37448;51.588;7.248;2022-08-30T00:10:57;101300.78;;;17.69;79.97
51359;BME280;37448;51.588;7.248;2022-08-30T00:13:28;101288.44;;;17.67;79.79
51359;BME280;37448;51.588;7.248;2022-08-30T00:15:58;101287.66;;;17.66;79.33
51359;BME280;37448;51.588;7.248;2022-08-30T00:18:29;101289.25;;;17.67;79.76
51359;BME280;37448;51.588;7.248;2022-08-30T00:20:59;101299.56;;;17.70;79.72
51359;BME280;37448;51.588;7.248;2022-08-30T00:23:31;101299.56;;;17.74;79.76
51359;BME280;37448;51.588;7.248;2022-08-30T00:26:02;101294.81;;;17.60;80.70
51359;BME280;37448;51.588;7.248;2022-08-30T00:28:33;101287.66;;;17.59;80.45
51359;BME280;37448;51.588;7.248;2022-08-30T00:31:04;101286.06;;;17.62;80.51
51359;BME280;37448;51.588;7.248;2022-08-30T00:33:35;101281.66;;;17.54;80.62
51359;BME280;37448;51.588;7.248;2022-08-30T00:36:06;101282.88;;;17.56;79.90
51359;BME280;37448;51.588;7.248;2022-08-30T00:38:36;101282.47;;;17.51;80.81
51359;BME280;37448;51.588;7.248;2022-08-30T00:41:06;101283.66;;;17.46;80.92
51359;BME280;37448;51.588;7.248;2022-08-30T00:43:37;101282.06;;;17.52;80.39
51359;BME280;37448;51.588;7.248;2022-08-30T00:46:07;101284.44;;;17.57;80.04
51359;BME280;37448;51.588;7.248;2022-08-30T00:48:42;101282.03;;;17.45;81.02
51359;BME280;37448;51.588;7.248;2022-08-30T00:51:14;101283.25;;;17.48;80.97
51359;BME280;37448;51.588;7.248;2022-08-30T00:53:48;101279.28;;;17.52;80.64
51359;BME280;37448;51.588;7.248;2022-08-30T00:56:20;101280.47;;;17.51;80.59
51359;BME280;37448;51.588;7.248;2022-08-30T00:58:54;101276.09;;;17.50;80.13
51359;BME280;37448;51.588;7.248;2022-08-30T01:01:27;101281.28;;;17.48;80.77
51359;BME280;37448;51.588;7.248;2022-08-30T01:03:58;101280.88;;;17.50;80.34
51359;BME280;37448;51.588;7.248;2022-08-30T01:06:29;101297.16;;;17.48;80.74
51359;BME280;37448;51.588;7.248;2022-08-30T01:09:03;101297.94;;;17.48;80.95
51359;BME280;37448;51.588;7.248;2022-08-30T01:11:37;101287.63;;;17.52;80.83
51359;BME280;37448;51.588;7.248;2022-08-30T01:14:11;101291.19;;;17.42;81.27
51359;BME280;37448;51.588;7.248;2022-08-30T01:16:42;101297.16;;;17.48;80.82
51359;BME280;37448;51.588;7.248;2022-08-30T01:25:11;101293.56;;;17.33;81.89
51359;BME280;37448;51.588;7.248;2022-08-30T01:27:46;101286.00;;;17.44;80.93
51359;BME280;37448;51.588;7.248;2022-08-30T01:30:18;101290.78;;;17.36;81.25
51359;BME280;37448;51.588;7.248;2022-08-30T01:32:49;101289.19;;;17.32;81.72
51359;BME280;37448;51.588;7.248;2022-08-30T01:35:22;101287.59;;;17.38;81.00
51359;BME280;37448;51.588;7.248;2022-08-30T01:37:52;101290.78;;;17.33;81.25
51359;BME280;37448;51.588;7.248;2022-08-30T01:40:23;101289.97;;;17.29;80.93
51359;BME280;37448;51.588;7.248;2022-08-30T01:42:53;101289.19;;;17.25;82.17
51359;BME280;37448;51.588;7.248;2022-08-30T01:45:23;101288.38;;;17.24;81.08
51359;BME280;37448;51.588;7.248;2022-08-30T01:47:54;101289.59;;;17.27;81.43
51359;BME280;37448;51.588;7.248;2022-08-30T01:50:25;101288.38;;;17.21;81.75
51359;BME280;37448;51.588;7.248;2022-08-30T01:52:55;101293.94;;;17.14;82.04
51359;BME280;37448;51.588;7.248;2022-08-30T01:55:26;101293.94;;;17.14;81.77
51359;BME280;37448;51.588;7.248;2022-08-30T01:57:56;101295.09;;;17.06;82.02
51359;BME280;37448;51.588;7.248;2022-08-30T02:00:27;101299.44;;;17.00;83.17
51359;BME280;37448;51.588;7.248;2022-08-30T02:02:57;101297.88;;;17.06;82.74
51359;BME280;37448;51.588;7.248;2022-08-30T02:05:27;101301.81;;;17.01;83.22
51359;BME280;37448;51.588;7.248;2022-08-30T02:07:58;101303.81;;;17.08;82.17
51359;BME280;37448;51.588;7.248;2022-08-30T02:10:29;101305.78;;;17.00;83.12
51359;BME280;37448;51.588;7.248;2022-08-30T02:13:00;101311.34;;;17.00;82.94
51359;BME280;37448;51.588;7.248;2022-08-30T02:15:31;101313.31;;;17.00;83.15
51359;BME280;37448;51.588;7.248;2022-08-30T02:18:01;101310.91;;;16.87;83.59
51359;BME280;37448;51.588;7.248;2022-08-30T02:20:32;101305.72;;;16.82;84.11
51359;BME280;37448;51.588;7.248;2022-08-30T02:23:02;101298.13;;;16.72;84.18
51359;BME280;37448;51.588;7.248;2022-08-30T02:25:32;101303.31;;;16.70;84.60
51359;BME280;37448;51.588;7.248;2022-08-30T02:28:04;101294.53;;;16.58;84.79
51359;BME280;37448;51.588;7.248;2022-08-30T02:30:35;101297.56;;;16.38;86.37
51359;BME280;37448;51.588;7.248;2022-08-30T02:33:05;101288.06;;;16.39;86.54
51359;BME280;37448;51.588;7.248;2022-08-30T02:35:36;101288.44;;;16.38;86.66
51359;BME280;37448;51.588;7.248;2022-08-30T02:38:07;101280.84;;;16.21;87.65
51359;BME280;37448;51.588;7.248;2022-08-30T02:40:37;101284.44;;;16.25;87.65
51359;BME280;37448;51.588;7.248;2022-08-30T02:43:08;101279.25;;;16.23;87.45
51359;BME280;37448;51.588;7.248;2022-08-30T02:45:38;101287.22;;;16.32;87.05
51359;BME280;37448;51.588;7.248;2022-08-30T02:48:09;101287.91;;;16.15;87.60
51359;BME280;37448;51.588;7.248;2022-08-30T02:50:44;101290.22;;;16.06;88.45
51359;BME280;37448;51.588;7.248;2022-08-30T02:53:15;101275.97;;;16.04;88.03
51359;BME280;37448;51.588;7.248;2022-08-30T02:55:47;101269.97;;;15.94;89.33
51359;BME280;37448;51.588;7.248;2022-08-30T02:58:17;101271.97;;;15.97;88.92
51359;BME280;37448;51.588;7.248;2022-08-30T03:00:48;101278.66;;;15.93;89.07
51359;BME280;37448;51.588;7.248;2022-08-30T03:03:19;101275.88;;;15.89;89.33
51359;BME280;37448;51.588;7.248;2022-08-30T03:05:49;101268.75;;;15.92;88.46
51359;BME280;37448;51.588;7.248;2022-08-30T03:08:19;101274.25;;;15.85;89.43
51359;BME280;37448;51.588;7.248;2022-08-30T03:10:50;101277.84;;;15.89;88.74
51359;BME280;37448;51.588;7.248;2022-08-30T03:13:21;101278.63;;;15.86;89.69
51359;BME280;37448;51.588;7.248;2022-08-30T03:15:51;101279.69;;;15.74;90.22
51359;BME280;37448;51.588;7.248;2022-08-30T03:18:23;101277.34;;;15.73;90.75
51359;BME280;37448;51.588;7.248;2022-08-30T03:20:53;101274.91;;;15.68;90.80
51359;BME280;37448;51.588;7.248;2022-08-30T03:23:23;101275.72;;;15.72;90.17
51359;BME280;37448;51.588;7.248;2022-08-30T03:25:54;101271.31;;;15.64;90.61
51359;BME280;37448;51.588;7.248;2022-08-30T03:28:24;101267.34;;;15.61;90.76
51359;BME280;37448;51.588;7.248;2022-08-30T03:30:54;101267.72;;;15.60;91.32
51359;BME280;37448;51.588;7.248;2022-08-30T03:33:25;101267.75;;;15.63;90.45
51359;BME280;37448;51.588;7.248;2022-08-30T03:35:56;101265.72;;;15.57;91.51
51359;BME280;37448;51.588;7.248;2022-08-30T03:38:26;101270.34;;;15.49;91.77
51359;BME280;37448;51.588;7.248;2022-08-30T03:40:57;101264.81;;;15.49;91.87
51359;BME280;37448;51.588;7.248;2022-08-30T03:43:27;101265.53;;;15.39;92.64
51359;BME280;37448;51.588;7.248;2022-08-30T03:45:59;101260.03;;;15.42;92.58
51359;BME280;37448;51.588;7.248;2022-08-30T03:48:30;101258.94;;;15.50;91.38
51359;BME280;37448;51.588;7.248;2022-08-30T03:51:00;101261.34;;;15.52;91.65
51359;BME280;37448;51.588;7.248;2022-08-30T03:53:30;101265.59;;;15.46;92.32
51359;BME280;37448;51.588;7.248;2022-08-30T03:56:02;101268.84;;;15.51;91.91
51359;BME280;37448;51.588;7.248;2022-08-30T03:58:32;101270.47;;;15.56;91.10
51359;BME280;37448;51.588;7.248;2022-08-30T04:01:03;101281.59;;;15.63;90.32
51359;BME280;37448;51.588;7.248;2022-08-30T04:03:34;101277.28;;;15.66;91.44
51359;BME280;37448;51.588;7.248;2022-08-30T04:06:04;101280.44;;;15.68;90.99
51359;BME280;37448;51.588;7.248;2022-08-30T04:08:35;101288.78;;;15.71;90.62
51359;BME280;37448;51.588;7.248;2022-08-30T04:11:05;101285.63;;;15.69;90.50
51359;BME280;37448;51.588;7.248;2022-08-30T04:13:36;101282.91;;;15.76;90.52
51359;BME280;37448;51.588;7.248;2022-08-30T04:16:06;101282.91;;;15.76;90.17
51359;BME280;37448;51.588;7.248;2022-08-30T04:18:37;101288.41;;;15.73;90.51
51359;BME280;37448;51.588;7.248;2022-08-30T04:21:07;101282.91;;;15.76;90.61
51359;BME280;37448;51.588;7.248;2022-08-30T04:23:38;101291.56;;;15.71;90.92
51359;BME280;37448;51.588;7.248;2022-08-30T04:26:09;101303.00;;;15.66;90.59
51359;BME280;37448;51.588;7.248;2022-08-30T04:28:39;101290.72;;;15.67;90.54
51359;BME280;37448;51.588;7.248;2022-08-30T04:31:13;101294.72;;;15.70;90.88
51359;BME280;37448;51.588;7.248;2022-08-30T04:33:44;101302.16;;;15.59;92.17
51359;BME280;37448;51.588;7.248;2022-08-30T04:36:15;101296.22;;;15.60;91.51
51359;BME280;37448;51.588;7.248;2022-08-30T04:38:45;101295.44;;;15.60;91.52
51359;BME280;37448;51.588;7.248;2022-08-30T04:41:17;101292.22;;;15.54;92.09
51359;BME280;37448;51.588;7.248;2022-08-30T04:43:48;101279.56;;;15.53;92.23
51359;BME280;37448;51.588;7.248;2022-08-30T04:46:19;101288.47;;;15.36;93.41
51359;BME280;37448;51.588;7.248;2022-08-30T04:48:50;101291.19;;;15.32;93.52
51359;BME280;37448;51.588;7.248;2022-08-30T04:51:20;101291.91;;;15.26;94.45
51359;BME280;37448;51.588;7.248;2022-08-30T04:53:50;101298.22;;;15.23;94.40
51359;BME280;37448;51.588;7.248;2022-08-30T04:56:22;101295.41;;;15.19;94.59
51359;BME280;37448;51.588;7.248;2022-08-30T04:58:54;101290.25;;;15.18;94.98
51359;BME280;37448;51.588;7.248;2022-08-30T05:01:27;101295.38;;;15.16;94.95
51359;BME280;37448;51.588;7.248;2022-08-30T05:03:58;101300.00;;;15.04;96.30
51359;BME280;37448;51.588;7.248;2022-08-30T05:06:29;101307.53;;;15.07;95.99
51359;BME280;37448;51.588;7.248;2022-08-30T05:09:02;101299.25;;;15.07;95.14
51359;BME280;37448;51.588;7.248;2022-08-30T05:11:33;101314.50;;;14.94;96.31
51359;BME280;37448;51.588;7.248;2022-08-30T05:14:04;101318.94;;;15.02;96.34
51359;BME280;37448;51.588;7.248;2022-08-30T05:16:34;101309.91;;;15.05;95.87
51359;BME280;37448;51.588;7.248;2022-08-30T05:19:05;101317.78;;;15.03;96.73
51359;BME280;37448;51.588;7.248;2022-08-30T05:21:36;101326.56;;;15.09;95.78
51359;BME280;37448;51.588;7.248;2022-08-30T05:24:09;101325.72;;;15.05;96.08
51359;BME280;37448;51.588;7.248;2022-08-30T05:26:40;101312.41;;;15.18;94.96
51359;BME280;37448;51.588;7.248;2022-08-30T05:29:10;101317.97;;;15.21;95.57
51359;BME280;37448;51.588;7.248;2022-08-30T05:31:42;101329.88;;;15.25;94.74
51359;BME280;37448;51.588;7.248;2022-08-30T05:34:13;101332.25;;;15.23;95.39
51359;BME280;37448;51.588;7.248;2022-08-30T05:36:44;101334.66;;;15.28;94.67
51359;BME280;37448;51.588;7.248;2022-08-30T05:39:14;101330.66;;;15.22;95.88
51359;BME280;37448;51.588;7.248;2022-08-30T05:41:44;101330.00;;;15.36;94.61
51359;BME280;37448;51.588;7.248;2022-08-30T05:44:15;101332.41;;;15.41;94.43
51359;BME280;37448;51.588;7.248;2022-08-30T05:46:45;101322.88;;;15.35;95.03
51359;BME280;37448;51.588;7.248;2022-08-30T05:49:17;101336.31;;;15.36;95.37
51359;BME280;37448;51.588;7.248;2022-08-30T05:51:47;101334.03;;;15.45;94.75
51359;BME280;37448;51.588;7.248;2022-08-30T05:54:17;101340.09;;;15.54;94.47
51359;BME280;37448;51.588;7.248;2022-08-30T05:56:48;101335.84;;;15.64;93.88
51359;BME280;37448;51.588;7.248;2022-08-30T05:59:18;101336.31;;;15.70;93.78
51359;BME280;37448;51.588;7.248;2022-08-30T06:01:49;101338.53;;;16.01;92.40
51359;BME280;37448;51.588;7.248;2022-08-30T06:04:19;101339.13;;;17.04;88.30
51359;BME280;37448;51.588;7.248;2022-08-30T06:06:49;101354.38;;;17.84;82.91
51359;BME280;37448;51.588;7.248;2022-08-30T06:09:21;101351.97;;;18.25;80.63
51359;BME280;37448;51.588;7.248;2022-08-30T06:11:51;101353.13;;;18.56;79.03
51359;BME280;37448;51.588;7.248;2022-08-30T06:14:22;101352.56;;;19.00;76.67
51359;BME280;37448;51.588;7.248;2022-08-30T06:16:53;101358.25;;;19.58;73.61
51359;BME280;37448;51.588;7.248;2022-08-30T06:19:23;101353.66;;;19.82;71.96
51359;BME280;37448;51.588;7.248;2022-08-30T06:21:54;101360.63;;;20.08;72.81
51359;BME280;37448;51.588;7.248;2022-08-30T06:24:24;101362.16;;;18.85;75.75
51359;BME280;37448;51.588;7.248;2022-08-30T06:26:55;101371.41;;;19.54;73.80
51359;BME280;37448;51.588;7.248;2022-08-30T06:29:25;101366.03;;;20.29;70.79
51359;BME280;37448;51.588;7.248;2022-08-30T06:31:56;101369.16;;;20.38;68.58
51359;BME280;37448;51.588;7.248;2022-08-30T06:34:27;101369.84;;;20.46;68.41
51359;BME280;37448;51.588;7.248;2022-08-30T06:36:57;101370.81;;;20.70;66.96
51359;BME280;37448;51.588;7.248;2022-08-30T06:39:28;101378.81;;;20.68;68.18
51359;BME280;37448;51.588;7.248;2022-08-30T06:41:58;101377.91;;;20.40;68.86
51359;BME280;37448;51.588;7.248;2022-08-30T06:44:28;101379.66;;;18.96;73.40
51359;BME280;37448;51.588;7.248;2022-08-30T06:46:59;101379.97;;;19.12;73.62
51359;BME280;37448;51.588;7.248;2022-08-30T06:49:29;101380.47;;;19.69;72.82
51359;BME280;37448;51.588;7.248;2022-08-30T06:51:59;101379.09;;;20.77;69.10
51359;BME280;37448;51.588;7.248;2022-08-30T06:54:30;101376.94;;;21.25;66.09
51359;BME280;37448;51.588;7.248;2022-08-30T06:57:00;101381.28;;;21.57;65.72
51359;BME280;37448;51.588;7.248;2022-08-30T06:59:31;101385.16;;;21.36;65.12
51359;BME280;37448;51.588;7.248;2022-08-30T07:02:01;101373.47;;;21.45;65.20
51359;BME280;37448;51.588;7.248;2022-08-30T07:04:31;101374.00;;;21.63;63.67
51359;BME280;37448;51.588;7.248;2022-08-30T07:07:02;101375.59;;;21.64;64.22
51359;BME280;37448;51.588;7.248;2022-08-30T07:09:32;101373.28;;;21.82;63.46
51359;BME280;37448;51.588;7.248;2022-08-30T07:12:04;101361.78;;;21.23;65.60
51359;BME280;37448;51.588;7.248;2022-08-30T07:14:36;101364.97;;;21.52;65.30
51359;BME280;37448;51.588;7.248;2022-08-30T07:17:07;101369.88;;;22.21;62.09
51359;BME280;37448;51.588;7.248;2022-08-30T07:19:57;101379.41;;;22.66;59.35
51359;BME280;37448;51.588;7.248;2022-08-30T07:22:28;101367.34;;;23.48;58.00
51359;BME280;37448;51.588;7.248;2022-08-30T07:24:59;101376.69;;;22.86;58.89
51359;BME280;37448;51.588;7.248;2022-08-30T07:27:29;101376.03;;;22.79;59.72
51359;BME280;37448;51.588;7.248;2022-08-30T07:30:00;101368.16;;;23.29;58.31
51359;BME280;37448;51.588;7.248;2022-08-30T07:32:31;101377.97;;;23.37;57.07
51359;BME280;37448;51.588;7.248;2022-08-30T07:35:02;101369.06;;;23.42;58.36
51359;BME280;37448;51.588;7.248;2022-08-30T07:37:32;101370.34;;;23.57;56.21
51359;BME280;37448;51.588;7.248;2022-08-30T07:40:03;101378.97;;;22.71;59.36
51359;BME280;37448;51.588;7.248;2022-08-30T07:42:34;101382.50;;;22.95;60.13
51359;BME280;37448;51.588;7.248;2022-08-30T07:45:04;101386.28;;;22.85;58.85
51359;BME280;37448;51.588;7.248;2022-08-30T07:47:35;101381.91;;;23.40;57.32
51359;BME280;37448;51.588;7.248;2022-08-30T07:50:06;101379.38;;;23.81;56.19
51359;BME280;37448;51.588;7.248;2022-08-30T07:52:37;101387.44;;;24.11;55.41
51359;BME280;37448;51.588;7.248;2022-08-30T07:55:07;101388.47;;;24.50;53.75
51359;BME280;37448;51.588;7.248;2022-08-30T07:57:39;101388.97;;;24.16;54.80
51359;BME280;37448;51.588;7.248;2022-08-30T08:00:09;101387.06;;;23.05;58.37
51359;BME280;37448;51.588;7.248;2022-08-30T08:02:40;101386.38;;;23.21;58.40
51359;BME280;37448;51.588;7.248;2022-08-30T08:05:11;101390.84;;;23.35;57.39
51359;BME280;37448;51.588;7.248;2022-08-30T08:07:43;101388.88;;;24.20;55.32
51359;BME280;37448;51.588;7.248;2022-08-30T08:10:14;101398.69;;;23.95;55.44
51359;BME280;37448;51.588;7.248;2022-08-30T08:12:45;101392.72;;;24.99;51.83
51359;BME280;37448;51.588;7.248;2022-08-30T08:15:16;101390.22;;;24.60;53.67
51359;BME280;37448;51.588;7.248;2022-08-30T08:17:46;101386.94;;;24.17;54.59
51359;BME280;37448;51.588;7.248;2022-08-30T08:20:16;101393.78;;;24.48;52.95
51359;BME280;37448;51.588;7.248;2022-08-30T08:22:47;101390.97;;;24.32;53.68
51359;BME280;37448;51.588;7.248;2022-08-30T08:25:18;101400.53;;;25.21;51.18
51359;BME280;37448;51.588;7.248;2022-08-30T08:27:49;101401.31;;;25.09;51.65
51359;BME280;37448;51.588;7.248;2022-08-30T08:30:21;101406.50;;;25.10;51.95
51359;BME280;37448;51.588;7.248;2022-08-30T08:32:52;101398.56;;;24.92;51.94
51359;BME280;37448;51.588;7.248;2022-08-30T08:35:23;101401.88;;;24.30;53.95
51359;BME280;37448;51.588;7.248;2022-08-30T08:37:53;101399.25;;;24.23;54.60
51359;BME280;37448;51.588;7.248;2022-08-30T08:40:24;101396.75;;;25.27;51.97
51359;BME280;37448;51.588;7.248;2022-08-30T08:43:01;101396.97;;;26.34;49.04
51359;BME280;37448;51.588;7.248;2022-08-30T08:48:42;101406.47;;;24.97;52.65
51359;BME280;37448;51.588;7.248;2022-08-30T08:51:17;101399.63;;;25.78;49.73
51359;BME280;37448;51.588;7.248;2022-08-30T08:54:11;101404.38;;;26.41;47.80
51359;BME280;37448;51.588;7.248;2022-08-30T08:56:44;101400.38;;;26.04;48.12
51359;BME280;37448;51.588;7.248;2022-08-30T08:59:15;101389.38;;;25.05;51.66
51359;BME280;37448;51.588;7.248;2022-08-30T09:01:46;101395.34;;;25.73;50.44
51359;BME280;37448;51.588;7.248;2022-08-30T09:04:22;101393.56;;;25.13;51.72
51359;BME280;37448;51.588;7.248;2022-08-30T09:07:04;101399.69;;;24.66;52.71
51359;BME280;37448;51.588;7.248;2022-08-30T09:09:38;101394.84;;;24.95;51.83
51359;BME280;37448;51.588;7.248;2022-08-30T09:12:10;101395.34;;;24.78;52.08
51359;BME280;37448;51.588;7.248;2022-08-30T09:14:45;101396.03;;;24.82;52.30
51359;BME280;37448;51.588;7.248;2022-08-30T09:17:19;101400.47;;;24.95;52.30
51359;BME280;37448;51.588;7.248;2022-08-30T09:22:22;101392.19;;;25.05;51.54
51359;BME280;37448;51.588;7.248;2022-08-30T09:25:07;101392.63;;;25.70;48.71
51359;BME280;37448;51.588;7.248;2022-08-30T09:30:25;101399.91;;;24.43;52.59
51359;BME280;37448;51.588;7.248;2022-08-30T09:35:38;101387.38;;;25.18;51.43
51359;BME280;37448;51.588;7.248;2022-08-30T09:38:16;101398.34;;;26.17;47.15
51359;BME280;37448;51.588;7.248;2022-08-30T09:40:56;101393.41;;;25.45;49.47
51359;BME280;37448;51.588;7.248;2022-08-30T09:43:32;101396.34;;;25.79;48.50
51359;BME280;37448;51.588;7.248;2022-08-30T09:46:08;101395.88;;;25.81;47.65
51359;BME280;37448;51.588;7.248;2022-08-30T09:48:41;101378.50;;;24.78;50.76
51359;BME280;37448;51.588;7.248;2022-08-30T09:51:44;101390.97;;;23.99;52.87
51359;BME280;37448;51.588;7.248;2022-08-30T09:54:19;101388.28;;;24.57;51.53
51359;BME280;37448;51.588;7.248;2022-08-30T09:59:59;101376.25;;;25.27;49.15
51359;BME280;37448;51.588;7.248;2022-08-30T10:16:34;101373.41;;;25.01;50.07
51359;BME280;37448;51.588;7.248;2022-08-30T10:22:23;101374.78;;;26.11;45.59
51359;BME280;37448;51.588;7.248;2022-08-30T10:25:07;101376.94;;;26.07;46.24
51359;BME280;37448;51.588;7.248;2022-08-30T10:27:48;101372.97;;;26.29;44.78
51359;BME280;37448;51.588;7.248;2022-08-30T10:30:21;101373.00;;;26.51;43.66
51359;BME280;37448;51.588;7.248;2022-08-30T10:32:59;101368.22;;;26.82;42.52
51359;BME280;37448;51.588;7.248;2022-08-30T10:35:44;101365.94;;;27.43;41.93
51359;BME280;37448;51.588;7.248;2022-08-30T10:38:28;101365.22;;;26.55;44.48
51359;BME280;37448;51.588;7.248;2022-08-30T10:41:38;101368.66;;;26.38;43.59
51359;BME280;37448;51.588;7.248;2022-08-30T10:49:45;101357.50;;;27.83;40.67
51359;BME280;37448;51.588;7.248;2022-08-30T10:55:16;101356.69;;;27.82;39.76
51359;BME280;37448;51.588;7.248;2022-08-30T10:57:48;101354.75;;;28.83;38.53
51359;BME280;37448;51.588;7.248;2022-08-30T11:00:29;101358.47;;;29.16;37.26
51359;BME280;37448;51.588;7.248;2022-08-30T11:03:16;101358.69;;;29.45;36.86
51359;BME280;37448;51.588;7.248;2022-08-30T11:06:02;101353.00;;;26.58;41.58
51359;BME280;37448;51.588;7.248;2022-08-30T11:14:09;101345.19;;;25.30;46.47
51359;BME280;37448;51.588;7.248;2022-08-30T11:16:47;101338.88;;;25.14;45.08
51359;BME280;37448;51.588;7.248;2022-08-30T11:19:38;101348.97;;;27.03;41.35
51359;BME280;37448;51.588;7.248;2022-08-30T11:22:16;101347.09;;;27.09;41.46
51359;BME280;37448;51.588;7.248;2022-08-30T11:27:53;101349.94;;;26.87;41.36
51359;BME280;37448;51.588;7.248;2022-08-30T11:35:39;101340.31;;;27.59;38.97
51359;BME280;37448;51.588;7.248;2022-08-30T11:46:34;101343.63;;;27.05;40.01
51359;BME280;37448;51.588;7.248;2022-08-30T12:00:38;101325.81;;;26.64;41.19
51359;BME280;37448;51.588;7.248;2022-08-30T12:05:56;101330.78;;;26.39;40.41
51359;BME280;37448;51.588;7.248;2022-08-30T12:16:33;101329.47;;;26.52;40.94
51359;BME280;37448;51.588;7.248;2022-08-30T12:19:18;101311.19;;;27.89;37.26
51359;BME280;37448;51.588;7.248;2022-08-30T12:22:00;101328.59;;;27.08;39.34
51359;BME280;37448;51.588;7.248;2022-08-30T12:24:34;101316.94;;;26.53;39.69
51359;BME280;37448;51.588;7.248;2022-08-30T12:27:30;101316.78;;;27.53;37.74
51359;BME280;37448;51.588;7.248;2022-08-30T12:30:05;101313.38;;;27.36;38.20
51359;BME280;37448;51.588;7.248;2022-08-30T12:32:46;101307.88;;;27.73;37.82
51359;BME280;37448;51.588;7.248;2022-08-30T12:35:21;101302.56;;;28.02;36.94
51359;BME280;37448;51.588;7.248;2022-08-30T12:38:01;101301.38;;;28.21;36.45
51359;BME280;37448;51.588;7.248;2022-08-30T12:40:34;101300.75;;;26.45;40.24
51359;BME280;37448;51.588;7.248;2022-08-30T12:43:15;101306.34;;;25.88;41.87
51359;BME280;37448;51.588;7.248;2022-08-30T12:45:48;101307.94;;;26.24;40.51
51359;BME280;37448;51.588;7.248;2022-08-30T12:48:19;101303.78;;;26.94;39.31
51359;BME280;37448;51.588;7.248;2022-08-30T12:50:56;101298.13;;;26.50;39.87
51359;BME280;37448;51.588;7.248;2022-08-30T12:56:06;101296.09;;;26.29;41.45
51359;BME280;37448;51.588;7.248;2022-08-30T13:01:17;101296.41;;;26.74;40.82
51359;BME280;37448;51.588;7.248;2022-08-30T13:06:53;101287.44;;;26.11;41.42
51359;BME280;37448;51.588;7.248;2022-08-30T13:09:28;101289.41;;;25.29;43.79
51359;BME280;37448;51.588;7.248;2022-08-30T13:12:02;101285.63;;;26.17;41.63
51359;BME280;37448;51.588;7.248;2022-08-30T13:14:34;101280.75;;;25.96;42.25
51359;BME280;37448;51.588;7.248;2022-08-30T13:17:11;101279.25;;;25.69;42.59
51359;BME280;37448;51.588;7.248;2022-08-30T13:20:05;101279.41;;;26.56;40.57
51359;BME280;37448;51.588;7.248;2022-08-30T13:25:33;101277.28;;;25.91;42.31
51359;BME280;37448;51.588;7.248;2022-08-30T13:28:06;101266.97;;;25.63;42.55
51359;BME280;37448;51.588;7.248;2022-08-30T13:30:36;101274.97;;;25.52;42.20
51359;BME280;37448;51.588;7.248;2022-08-30T13:33:07;101266.53;;;25.65;42.17
51359;BME280;37448;51.588;7.248;2022-08-30T13:35:40;101266.66;;;25.36;42.56
51359;BME280;37448;51.588;7.248;2022-08-30T13:38:11;101269.44;;;25.48;42.47
51359;BME280;37448;51.588;7.248;2022-08-30T13:40:42;101266.53;;;25.27;43.08
51359;BME280;37448;51.588;7.248;2022-08-30T13:43:12;101265.31;;;26.00;41.58
51359;BME280;37448;51.588;7.248;2022-08-30T13:45:42;101258.75;;;25.43;42.82
51359;BME280;37448;51.588;7.248;2022-08-30T13:48:13;101259.19;;;25.42;42.54
51359;BME280;37448;51.588;7.248;2022-08-30T13:50:45;101259.75;;;25.75;42.00
51359;BME280;37448;51.588;7.248;2022-08-30T13:53:15;101267.91;;;26.29;40.96
51359;BME280;37448;51.588;7.248;2022-08-30T13:55:46;101262.28;;;26.29;40.39
51359;BME280;37448;51.588;7.248;2022-08-30T13:58:16;101263.59;;;26.03;40.98
51359;BME280;37448;51.588;7.248;2022-08-30T14:00:46;101254.09;;;26.22;40.59
51359;BME280;37448;51.588;7.248;2022-08-30T14:03:17;101254.03;;;26.34;39.58
51359;BME280;37448;51.588;7.248;2022-08-30T14:05:47;101254.88;;;26.22;40.36
51359;BME280;37448;51.588;7.248;2022-08-30T14:08:23;101250.84;;;26.98;39.10
51359;BME280;37448;51.588;7.248;2022-08-30T14:10:57;101264.75;;;26.27;40.27
51359;BME280;37448;51.588;7.248;2022-08-30T14:13:28;101259.03;;;26.61;39.64
51359;BME280;37448;51.588;7.248;2022-08-30T14:15:59;101256.78;;;25.91;40.77
51359;BME280;37448;51.588;7.248;2022-08-30T14:18:31;101255.91;;;26.59;39.31
51359;BME280;37448;51.588;7.248;2022-08-30T14:21:01;101260.03;;;26.67;39.07
51359;BME280;37448;51.588;7.248;2022-08-30T14:23:32;101255.00;;;26.62;39.29
51359;BME280;37448;51.588;7.248;2022-08-30T14:26:05;101248.69;;;26.58;39.46
51359;BME280;37448;51.588;7.248;2022-08-30T14:28:40;101241.69;;;26.41;39.70
51359;BME280;37448;51.588;7.248;2022-08-30T14:31:11;101245.81;;;26.27;40.29
51359;BME280;37448;51.588;7.248;2022-08-30T14:33:42;101245.34;;;26.94;38.48
51359;BME280;37448;51.588;7.248;2022-08-30T14:36:12;101255.44;;;26.61;38.85
51359;BME280;37448;51.588;7.248;2022-08-30T14:38:43;101249.06;;;26.69;38.39
51359;BME280;37448;51.588;7.248;2022-08-30T14:41:14;101254.69;;;26.60;39.21
51359;BME280;37448;51.588;7.248;2022-08-30T14:43:44;101248.59;;;26.06;39.11
51359;BME280;37448;51.588;7.248;2022-08-30T14:46:15;101246.03;;;25.99;39.70
51359;BME280;37448;51.588;7.248;2022-08-30T14:48:45;101237.97;;;25.88;39.81
51359;BME280;37448;51.588;7.248;2022-08-30T14:51:20;101237.94;;;26.01;39.24
51359;BME280;37448;51.588;7.248;2022-08-30T14:53:52;101240.34;;;25.77;39.31
51359;BME280;37448;51.588;7.248;2022-08-30T14:56:23;101234.78;;;25.99;39.42
51359;BME280;37448;51.588;7.248;2022-08-30T14:58:54;101235.16;;;26.10;39.79